Briefing drone pour Reignier-esery

Rechercher une autre localisation

Conditions de vol :


Nous sommes le : Dimanche 14 avril 2024
Il est 01:16 UTC (03:16 LT)

Lever de soleil : 04:22 UTC (06:22 LT)
Coucher de soleil : 18:47 UTC (20:47 LT)

Météo

L'essentiel des conditions de vol

VIGILANCE MÉTÉO FRANCE - Haute-Savoie (74)
Vigilance Jaune : Pluie-inondation / Avalanches
CARTE TEMSI
CARTES DES FRONTS
METAR de LFLP
LFLP 140100Z AUTO 06005KT CAVOK 10/08 Q1027

Date d'émission: 14/04/2024
Heure d'émission: 01:00 UTC
Vent: 060° pour 5 KT (9 km/h)
Visibilité horizontale: > 10 km
Plafond : Plafond et visibilité OK (CAVOK)
Température: 10 °C
Point de rosée: 8 °C
Humidité: 87%
Pression (QNH): 1027 hPa
TAF de LFLP
AMD LFLP 131815Z 1318/1415 CNL

Conditions prévues :

Heure d'émission : Bulletin éffectué le 13 à 18:00 UTC
Prévision : Valide du 13 a 18:00 UTC au 14 a 15:00 UTC
Nuages : à 0ft (0 m)
WEBCAM POUR REIGNIER-ESERY

Réglementation

Voler en sécurité

CARTES AERONAUTIQUE 1/500.000
CARTE AZBA (Reseau basse altitude)
CARTES VAC (LFLP)
SUP AIP




Chargement des AIP...
NOTAM (REIGNIER-ESERY + Terrain à proximité / FIR )




Chargement des NOTAMS...
CONTACT PREFECTURE 74
Haute-Savoie (74) : [email protected]


Avertissement : Les données mises à disposition sont indicatives. Oxygène Drone ne pourra être tenu responsable de dégâts causés aux biens et aux personnes.